createdAt,value
2022-12-11T00:00:21.721Z,2.56
2022-12-11T00:01:24.346Z,2.58
2022-12-11T00:02:27.201Z,2.58
2022-12-11T00:03:30.098Z,2.57
2022-12-11T00:04:32.846Z,2.58
2022-12-11T00:05:35.489Z,2.58
2022-12-11T00:06:38.117Z,2.6
2022-12-11T00:07:40.826Z,2.6
2022-12-11T00:08:43.470Z,2.6
2022-12-11T00:09:46.156Z,2.62
2022-12-11T00:10:48.847Z,2.63
2022-12-11T00:11:51.516Z,2.65
2022-12-11T00:12:54.179Z,2.66
2022-12-11T00:13:56.838Z,2.65
2022-12-11T00:14:59.527Z,2.66
2022-12-11T00:16:02.382Z,2.66
2022-12-11T00:17:05.267Z,2.67
2022-12-11T00:18:08.050Z,2.69
2022-12-11T00:19:10.747Z,2.68
2022-12-11T00:20:13.499Z,2.67
2022-12-11T00:21:16.204Z,2.67
2022-12-11T00:22:18.865Z,2.68
2022-12-11T00:23:21.646Z,2.67
2022-12-11T00:24:24.335Z,2.65
2022-12-11T00:25:26.967Z,2.65
2022-12-11T00:26:29.600Z,2.66
2022-12-11T00:27:32.212Z,2.64
2022-12-11T00:28:34.871Z,2.56
2022-12-11T00:29:37.510Z,2.48
2022-12-11T00:30:40.149Z,2.48
2022-12-11T00:31:43.078Z,2.5
2022-12-11T00:32:45.807Z,2.53
2022-12-11T00:33:48.492Z,2.54
2022-12-11T00:34:51.129Z,2.48
2022-12-11T00:35:53.796Z,2.48
2022-12-11T00:36:56.845Z,2.49
2022-12-11T00:37:59.704Z,2.5
2022-12-11T00:39:02.370Z,2.48
2022-12-11T00:40:04.973Z,2.47
2022-12-11T00:41:07.608Z,2.45
2022-12-11T00:42:10.279Z,2.43
2022-12-11T00:43:12.921Z,2.45
2022-12-11T00:44:15.571Z,2.47
2022-12-11T00:45:18.260Z,2.48
2022-12-11T00:46:21.187Z,2.49
2022-12-11T00:47:23.995Z,2.48
2022-12-11T00:48:26.605Z,2.45
2022-12-11T00:49:29.246Z,2.38
2022-12-11T00:50:31.865Z,2.32
2022-12-11T00:51:34.551Z,2.32
2022-12-11T00:52:37.246Z,2.35
2022-12-11T00:53:39.906Z,2.37
2022-12-11T00:54:42.627Z,2.36
2022-12-11T00:55:45.301Z,2.36
2022-12-11T00:56:47.932Z,2.37
2022-12-11T00:57:50.601Z,2.37
2022-12-11T00:58:53.265Z,2.35
2022-12-11T00:59:55.891Z,2.19
2022-12-11T01:00:58.825Z,2.14
2022-12-11T01:02:01.841Z,2.13
2022-12-11T01:03:04.904Z,2.05
2022-12-11T01:04:07.607Z,2.01
2022-12-11T01:05:11.179Z,1.91
2022-12-11T01:06:14.206Z,1.87
2022-12-11T01:07:16.921Z,1.87
2022-12-11T01:08:19.757Z,1.78
2022-12-11T01:09:22.417Z,1.75
2022-12-11T01:10:25.616Z,1.69
2022-12-11T01:11:28.407Z,1.7
2022-12-11T01:12:31.022Z,1.68
2022-12-11T01:13:33.662Z,1.71
2022-12-11T01:14:36.369Z,1.76
2022-12-11T01:15:42.288Z,1.8
2022-12-11T01:16:44.826Z,1.83
2022-12-11T01:17:47.530Z,1.85
2022-12-11T01:18:50.189Z,1.85
2022-12-11T01:19:52.867Z,1.76
2022-12-11T01:20:55.539Z,1.7
2022-12-11T01:21:58.167Z,1.53
2022-12-11T01:23:01.185Z,1.52
2022-12-11T01:24:04.424Z,1.55
2022-12-11T01:25:07.162Z,1.6
2022-12-11T01:26:10.126Z,1.64
2022-12-11T01:27:12.811Z,1.66
2022-12-11T01:28:15.503Z,1.68
2022-12-11T01:29:18.145Z,1.7
2022-12-11T01:30:20.757Z,1.71
2022-12-11T01:31:23.396Z,1.71
2022-12-11T01:32:26.053Z,1.71
2022-12-11T01:33:28.705Z,1.72
2022-12-11T01:34:31.399Z,1.74
2022-12-11T01:35:34.036Z,1.7
2022-12-11T01:36:36.670Z,1.65
2022-12-11T01:37:39.279Z,1.66
2022-12-11T01:38:41.972Z,1.68
2022-12-11T01:39:44.609Z,1.71
2022-12-11T01:40:47.332Z,1.73
2022-12-11T01:41:50.056Z,1.71
2022-12-11T01:42:52.697Z,1.67
2022-12-11T01:43:55.355Z,1.61
2022-12-11T01:44:57.985Z,1.53
2022-12-11T01:46:00.839Z,1.42
2022-12-11T01:47:03.573Z,1.28
2022-12-11T01:48:06.251Z,1.19
2022-12-11T01:49:08.873Z,1.2
2022-12-11T01:50:11.521Z,1.18
2022-12-11T01:51:14.176Z,1.13
2022-12-11T01:52:16.806Z,1.05
2022-12-11T01:53:19.432Z,1.07
2022-12-11T01:54:22.104Z,1.09
2022-12-11T01:55:24.733Z,1.14
2022-12-11T01:56:27.613Z,1.18
2022-12-11T01:57:30.255Z,1.25
2022-12-11T01:58:32.963Z,1.27
2022-12-11T01:59:35.668Z,1.24
2022-12-11T02:00:38.283Z,1.13
2022-12-11T02:01:41.258Z,1.11
2022-12-11T02:02:44.369Z,1.15
2022-12-11T02:03:46.994Z,1.2
2022-12-11T02:04:49.692Z,1.2
2022-12-11T02:05:52.350Z,1.19
2022-12-11T02:06:55.009Z,1.13
2022-12-11T02:07:57.866Z,1.07
2022-12-11T02:09:00.614Z,1.05
2022-12-11T02:10:03.365Z,1.05
2022-12-11T02:11:06.018Z,1.07
2022-12-11T02:12:08.901Z,1.1
2022-12-11T02:13:16.523Z,1.1
2022-12-11T02:14:18.845Z,1.14
2022-12-11T02:15:21.456Z,1.17
2022-12-11T02:16:24.255Z,1.19
2022-12-11T02:17:26.994Z,1.23
2022-12-11T02:18:29.648Z,1.26
2022-12-11T02:19:32.293Z,1.28
2022-12-11T02:20:34.889Z,1.33
2022-12-11T02:21:37.494Z,1.34
2022-12-11T02:22:40.162Z,1.35
2022-12-11T02:23:42.808Z,1.3
2022-12-11T02:24:45.459Z,1.26
2022-12-11T02:25:48.158Z,1.23
2022-12-11T02:26:50.760Z,1.24
2022-12-11T02:27:53.406Z,1.16
2022-12-11T02:28:56.670Z,1.11
2022-12-11T02:29:59.344Z,1.02
2022-12-11T02:31:02.206Z,0.99
2022-12-11T02:32:04.953Z,1.02
2022-12-11T02:33:07.578Z,1.03
2022-12-11T02:34:10.216Z,1.04
2022-12-11T02:35:13.816Z,1.07
2022-12-11T02:36:16.574Z,1.1
2022-12-11T02:37:19.239Z,1.12
2022-12-11T02:38:21.856Z,1.09
2022-12-11T02:39:24.493Z,1.07
2022-12-11T02:40:27.154Z,1.05
2022-12-11T02:41:29.829Z,1.09
2022-12-11T02:42:32.433Z,1.11
2022-12-11T02:43:35.080Z,1.15
2022-12-11T02:44:37.701Z,1.22
2022-12-11T02:45:40.572Z,1.26
2022-12-11T02:46:43.328Z,1.28
2022-12-11T02:47:45.951Z,1.35
2022-12-11T02:48:48.620Z,1.38
2022-12-11T02:49:51.286Z,1.26
2022-12-11T02:50:53.873Z,1.22
2022-12-11T02:51:56.552Z,1.17
2022-12-11T02:52:59.169Z,1.19
2022-12-11T02:54:01.806Z,1.21
2022-12-11T02:55:04.432Z,1.19
2022-12-11T02:56:07.091Z,1.07
2022-12-11T02:57:09.809Z,0.93
2022-12-11T02:58:13.065Z,0.88
2022-12-11T02:59:15.644Z,0.93
2022-12-11T03:00:18.324Z,1.01
2022-12-11T03:01:21.162Z,1.09
2022-12-11T03:02:24.018Z,1.12
2022-12-11T03:03:26.707Z,1.07
2022-12-11T03:04:29.345Z,1.01
2022-12-11T03:05:31.984Z,1.03
2022-12-11T03:06:34.636Z,1.07
2022-12-11T03:07:37.318Z,1.09
2022-12-11T03:08:39.942Z,1.08
2022-12-11T03:09:42.601Z,0.82
2022-12-11T03:10:45.282Z,0.85
2022-12-11T03:11:47.908Z,0.85
2022-12-11T03:12:54.273Z,0.82
2022-12-11T03:13:56.637Z,0.85
2022-12-11T03:14:59.236Z,0.92
2022-12-11T03:16:02.068Z,0.96
2022-12-11T03:17:04.926Z,0.97
2022-12-11T03:18:07.563Z,0.92
2022-12-11T03:19:10.230Z,0.89
2022-12-11T03:20:12.838Z,0.92
2022-12-11T03:21:15.524Z,0.91
2022-12-11T03:22:18.154Z,0.95
2022-12-11T03:23:20.786Z,1
2022-12-11T03:24:23.386Z,1.07
2022-12-11T03:25:26.053Z,1.13
2022-12-11T03:26:28.713Z,1.13
2022-12-11T03:27:31.384Z,1.08
2022-12-11T03:28:34.071Z,1.09
2022-12-11T03:29:36.726Z,1.1
2022-12-11T03:30:39.500Z,1.15
2022-12-11T03:31:42.251Z,1.19
2022-12-11T03:32:44.943Z,1.18
2022-12-11T03:33:47.587Z,1.17
2022-12-11T03:34:58.508Z,1.13
2022-12-11T03:36:00.858Z,1.13
2022-12-11T03:37:03.423Z,1.16
2022-12-11T03:38:06.058Z,1.2
2022-12-11T03:39:08.739Z,1.23
2022-12-11T03:40:11.408Z,1.22
2022-12-11T03:41:14.052Z,1.22
2022-12-11T03:42:16.679Z,1.24
2022-12-11T03:43:19.327Z,1.24
2022-12-11T03:44:22.061Z,1.23
2022-12-11T03:45:24.736Z,1.22
2022-12-11T03:46:27.512Z,1.18
2022-12-11T03:47:30.284Z,1.17
2022-12-11T03:48:32.927Z,1.16
2022-12-11T03:49:35.567Z,1.17
2022-12-11T03:50:38.201Z,1.13
2022-12-11T03:51:40.858Z,1.12
2022-12-11T03:52:46.515Z,1.12
2022-12-11T03:53:48.924Z,1.15
2022-12-11T03:54:51.565Z,1.17
2022-12-11T03:55:54.228Z,1.15
2022-12-11T03:56:56.915Z,1.16
2022-12-11T03:57:59.524Z,1.05
2022-12-11T03:59:02.160Z,1.01
2022-12-11T04:00:04.796Z,1.03
2022-12-11T04:01:07.445Z,1.04
2022-12-11T04:02:10.213Z,1.02
2022-12-11T04:03:15.076Z,1.02
2022-12-11T04:04:17.848Z,1.04
2022-12-11T04:05:20.512Z,1.06
2022-12-11T04:06:23.169Z,1.09
2022-12-11T04:07:25.795Z,1
2022-12-11T04:08:28.592Z,0.92
2022-12-11T04:09:31.353Z,0.76
2022-12-11T04:10:33.999Z,0.78
2022-12-11T04:11:36.647Z,0.82
2022-12-11T04:12:39.309Z,0.83
2022-12-11T04:13:41.907Z,0.76
2022-12-11T04:14:44.531Z,0.76
2022-12-11T04:15:47.327Z,0.75
2022-12-11T04:16:50.070Z,0.77
2022-12-11T04:17:52.696Z,0.83
2022-12-11T04:18:55.374Z,0.87
2022-12-11T04:19:58.040Z,0.93
2022-12-11T04:21:00.679Z,0.96
2022-12-11T04:22:03.333Z,0.99
2022-12-11T04:23:05.986Z,1.03
2022-12-11T04:24:08.613Z,1.07
2022-12-11T04:25:12.400Z,1.11
2022-12-11T04:26:15.392Z,1.13
2022-12-11T04:27:17.994Z,1.15
2022-12-11T04:28:20.688Z,1.16
2022-12-11T04:29:23.345Z,1.18
2022-12-11T04:30:34.606Z,1.19
2022-12-11T04:31:36.903Z,1.2
2022-12-11T04:32:39.486Z,1.19
2022-12-11T04:33:42.136Z,1.18
2022-12-11T04:34:44.838Z,1.18
2022-12-11T04:35:47.487Z,1.16
2022-12-11T04:36:50.144Z,1.14
2022-12-11T04:37:53.429Z,1.14
2022-12-11T04:38:56.034Z,1.16
2022-12-11T04:39:58.648Z,1.18
2022-12-11T04:41:01.284Z,1.19
2022-12-11T04:42:04.187Z,1.2
2022-12-11T04:43:06.813Z,1.22
2022-12-11T04:44:09.475Z,1.23
2022-12-11T04:45:12.977Z,1.24
2022-12-11T04:46:16.138Z,1.22
2022-12-11T04:47:19.184Z,1.18
2022-12-11T04:48:21.829Z,1.14
2022-12-11T04:49:24.460Z,1.12
2022-12-11T04:50:27.109Z,1.11
2022-12-11T04:51:29.788Z,1.11
2022-12-11T04:52:32.426Z,1.12
2022-12-11T04:53:35.067Z,1.14
2022-12-11T04:54:38.301Z,1.11
2022-12-11T04:55:40.894Z,1.08
2022-12-11T04:56:43.500Z,1.09
2022-12-11T04:57:46.195Z,1.09
2022-12-11T04:58:48.851Z,1.09
2022-12-11T04:59:51.540Z,1.08
2022-12-11T05:00:54.180Z,1.08
2022-12-11T05:01:56.991Z,1.11
2022-12-11T05:02:59.965Z,1.14
2022-12-11T05:04:02.718Z,1.13
2022-12-11T05:05:05.367Z,1.13
2022-12-11T05:06:07.992Z,1.14
2022-12-11T05:07:10.658Z,1.15
2022-12-11T05:08:13.723Z,1.18
2022-12-11T05:09:16.988Z,1.18
2022-12-11T05:10:19.614Z,1.2
2022-12-11T05:11:22.339Z,1.23
2022-12-11T05:12:24.912Z,1.25
2022-12-11T05:13:27.625Z,1.27
2022-12-11T05:14:30.279Z,1.28
2022-12-11T05:15:32.944Z,1.27
2022-12-11T05:16:35.574Z,1.24
2022-12-11T05:17:38.796Z,1.21
2022-12-11T05:18:41.464Z,1.23
2022-12-11T05:19:44.127Z,1.24
2022-12-11T05:20:46.759Z,1.25
2022-12-11T05:21:49.401Z,1.26
2022-12-11T05:22:52.069Z,1.28
2022-12-11T05:23:54.725Z,1.28
2022-12-11T05:24:57.380Z,1.28
2022-12-11T05:26:00.025Z,1.26
2022-12-11T05:27:02.647Z,1.26
2022-12-11T05:28:05.289Z,1.23
2022-12-11T05:29:07.930Z,1.25
2022-12-11T05:30:10.575Z,1.15
2022-12-11T05:31:13.412Z,1.07
2022-12-11T05:32:16.098Z,1.06
2022-12-11T05:33:18.756Z,1.08
2022-12-11T05:34:21.474Z,1.09
2022-12-11T05:35:24.089Z,1.07
2022-12-11T05:36:26.731Z,1.05
2022-12-11T05:37:29.371Z,1.08
2022-12-11T05:38:31.982Z,1.12
2022-12-11T05:39:34.627Z,1.14
2022-12-11T05:40:37.239Z,1.13
2022-12-11T05:41:39.879Z,1.06
2022-12-11T05:42:42.555Z,0.91
2022-12-11T05:43:45.193Z,0.77
2022-12-11T05:44:47.815Z,0.64
2022-12-11T05:45:50.444Z,0.59
2022-12-11T05:46:53.287Z,0.65
2022-12-11T05:47:55.965Z,0.72
2022-12-11T05:48:58.571Z,0.81
2022-12-11T05:50:01.312Z,0.87
2022-12-11T05:51:03.975Z,0.92
2022-12-11T05:52:06.649Z,0.92
2022-12-11T05:53:09.373Z,0.92
2022-12-11T05:54:12.034Z,0.91
2022-12-11T05:55:14.673Z,0.93
2022-12-11T05:56:17.297Z,0.96
2022-12-11T05:57:20.138Z,0.99
2022-12-11T05:58:22.762Z,1.02
2022-12-11T05:59:25.411Z,1.04
2022-12-11T06:00:36.467Z,1.05
2022-12-11T06:01:38.784Z,1.09
2022-12-11T06:02:41.804Z,1.11
2022-12-11T06:03:44.741Z,1.13
2022-12-11T06:04:47.369Z,1.12
2022-12-11T06:05:50.095Z,1.07
2022-12-11T06:06:52.698Z,1.07
2022-12-11T06:07:55.469Z,1.1
2022-12-11T06:08:58.124Z,1.12
2022-12-11T06:10:00.793Z,1.14
2022-12-11T06:11:03.412Z,1.17
2022-12-11T06:12:06.084Z,1.2
2022-12-11T06:13:08.732Z,1.22
2022-12-11T06:14:11.389Z,1.23
2022-12-11T06:15:14.018Z,1.24
2022-12-11T06:16:16.786Z,1.24
2022-12-11T06:17:19.482Z,1.25
2022-12-11T06:18:22.125Z,1.24
2022-12-11T06:19:24.769Z,1.24
2022-12-11T06:20:27.410Z,1.24
2022-12-11T06:21:30.162Z,1.26
2022-12-11T06:22:32.795Z,1.27
2022-12-11T06:23:35.691Z,1.3
2022-12-11T06:24:38.366Z,1.31
2022-12-11T06:25:41.014Z,1.33
2022-12-11T06:26:43.681Z,1.33
2022-12-11T06:27:46.368Z,1.3
2022-12-11T06:28:49.053Z,1.23
2022-12-11T06:29:51.768Z,1.16
2022-12-11T06:30:54.583Z,1.11
2022-12-11T06:31:57.450Z,1.07
2022-12-11T06:33:00.167Z,1.06
2022-12-11T06:34:02.826Z,1.07
2022-12-11T06:35:05.488Z,1.08
2022-12-11T06:36:08.133Z,1.08
2022-12-11T06:37:10.992Z,1.09
2022-12-11T06:38:13.629Z,1.13
2022-12-11T06:39:16.344Z,1.16
2022-12-11T06:40:19.034Z,1.18
2022-12-11T06:41:21.695Z,1.2
2022-12-11T06:42:24.330Z,1.2
2022-12-11T06:43:26.976Z,1.21
2022-12-11T06:44:29.644Z,1.24
2022-12-11T06:45:32.519Z,1.23
2022-12-11T06:46:35.872Z,1.24
2022-12-11T06:47:38.436Z,1.25
2022-12-11T06:48:41.035Z,1.24
2022-12-11T06:49:43.656Z,1.22
2022-12-11T06:50:46.316Z,1.22
2022-12-11T06:51:48.995Z,1.22
2022-12-11T06:52:51.692Z,1.23
2022-12-11T06:53:54.330Z,1.23
2022-12-11T06:54:57.012Z,1.26
2022-12-11T06:55:59.663Z,1.26
2022-12-11T06:57:02.333Z,1.28
2022-12-11T06:58:05.035Z,1.29
2022-12-11T06:59:07.980Z,1.28
2022-12-11T07:00:10.614Z,1.29
2022-12-11T07:01:13.415Z,1.3
2022-12-11T07:02:16.242Z,1.3
2022-12-11T07:03:18.978Z,1.31
2022-12-11T07:04:21.605Z,1.33
2022-12-11T07:05:24.253Z,1.32
2022-12-11T07:06:26.911Z,1.31
2022-12-11T07:07:29.742Z,1.33
2022-12-11T07:08:32.433Z,1.33
2022-12-11T07:09:35.111Z,1.34
2022-12-11T07:10:37.722Z,1.33
2022-12-11T07:11:40.410Z,1.36
2022-12-11T07:12:43.057Z,1.36
2022-12-11T07:13:45.707Z,1.36
2022-12-11T07:14:48.347Z,1.36
2022-12-11T07:15:51.021Z,1.37
2022-12-11T07:16:53.764Z,1.38
2022-12-11T07:17:56.493Z,1.4
2022-12-11T07:18:59.080Z,1.41
2022-12-11T07:20:01.681Z,1.43
2022-12-11T07:21:04.289Z,1.44
2022-12-11T07:22:06.892Z,1.43
2022-12-11T07:23:09.538Z,1.44
2022-12-11T07:24:12.264Z,1.42
2022-12-11T07:25:14.952Z,1.43
2022-12-11T07:26:17.591Z,1.44
2022-12-11T07:27:20.222Z,1.44
2022-12-11T07:28:22.882Z,1.44
2022-12-11T07:29:25.526Z,1.45
2022-12-11T07:30:28.355Z,1.45
2022-12-11T07:31:31.196Z,1.43
2022-12-11T07:32:34.090Z,1.44
2022-12-11T07:33:36.809Z,1.46
2022-12-11T07:34:39.465Z,1.48
2022-12-11T07:35:42.407Z,1.49
2022-12-11T07:36:45.055Z,1.48
2022-12-11T07:37:47.678Z,1.48
2022-12-11T07:38:50.292Z,1.48
2022-12-11T07:39:52.985Z,1.49
2022-12-11T07:40:55.627Z,1.51
2022-12-11T07:41:58.414Z,1.52
2022-12-11T07:43:01.120Z,1.52
2022-12-11T07:44:03.779Z,1.54
2022-12-11T07:45:06.429Z,1.51
2022-12-11T07:46:09.249Z,1.48
2022-12-11T07:47:12.002Z,1.43
2022-12-11T07:48:14.616Z,1.33
2022-12-11T07:49:17.286Z,1.29
2022-12-11T07:50:19.937Z,1.28
2022-12-11T07:51:22.692Z,1.28
2022-12-11T07:52:25.366Z,1.28
2022-12-11T07:53:28.022Z,1.29
2022-12-11T07:54:30.664Z,1.27
2022-12-11T07:55:33.585Z,1.28
2022-12-11T07:56:36.186Z,1.3
2022-12-11T07:57:38.812Z,1.3
2022-12-11T07:58:41.529Z,1.27
2022-12-11T07:59:44.388Z,1.26
2022-12-11T08:00:47.161Z,1.24
2022-12-11T08:01:49.866Z,1.22
2022-12-11T08:02:52.716Z,1.21
2022-12-11T08:03:55.475Z,1.25
2022-12-11T08:04:58.078Z,1.29
2022-12-11T08:06:00.682Z,1.31
2022-12-11T08:07:03.311Z,1.33
2022-12-11T08:08:06.336Z,1.33
2022-12-11T08:09:09.077Z,1.33
2022-12-11T08:10:11.718Z,1.27
2022-12-11T08:11:14.406Z,1.29
2022-12-11T08:12:17.080Z,1.28
2022-12-11T08:13:19.709Z,1.27
2022-12-11T08:14:22.413Z,1.23
2022-12-11T08:15:25.109Z,1.19
2022-12-11T08:16:27.899Z,1.19
2022-12-11T08:17:40.449Z,1.21
2022-12-11T08:18:42.698Z,1.22
2022-12-11T08:19:45.288Z,1.22
2022-12-11T08:20:47.925Z,1.17
2022-12-11T08:21:50.556Z,1.16
2022-12-11T08:22:59.501Z,1.2
2022-12-11T08:24:01.825Z,1.2
2022-12-11T08:25:04.497Z,1.13
2022-12-11T08:26:07.125Z,1.08
2022-12-11T08:27:09.860Z,1.09
2022-12-11T08:28:12.464Z,1.1
2022-12-11T08:29:15.107Z,1.1
2022-12-11T08:30:17.736Z,1.12
2022-12-11T08:31:20.560Z,1.13
2022-12-11T08:32:23.299Z,1.17
2022-12-11T08:33:25.910Z,1.21
2022-12-11T08:34:28.601Z,1.19
2022-12-11T08:35:39.123Z,1.13
2022-12-11T08:36:41.541Z,1.17
2022-12-11T08:37:44.147Z,1.2
2022-12-11T08:38:46.794Z,1.23
2022-12-11T08:39:50.011Z,1.26
2022-12-11T08:40:52.628Z,1.26
2022-12-11T08:41:55.260Z,1.25
2022-12-11T08:42:57.977Z,1.22
2022-12-11T08:44:00.667Z,1.23
2022-12-11T08:45:03.260Z,1.29
2022-12-11T08:46:06.132Z,1.34
2022-12-11T08:47:08.872Z,1.41
2022-12-11T08:48:11.476Z,1.45
2022-12-11T08:49:14.155Z,1.48
2022-12-11T08:50:16.815Z,1.52
2022-12-11T08:51:19.480Z,1.51
2022-12-11T08:52:22.099Z,1.51
2022-12-11T08:53:24.718Z,1.56
2022-12-11T08:54:27.452Z,1.59
2022-12-11T08:55:30.096Z,1.63
2022-12-11T08:56:34.203Z,1.67
2022-12-11T08:57:36.744Z,1.71
2022-12-11T08:58:39.443Z,1.75
2022-12-11T08:59:42.082Z,1.78
2022-12-11T09:00:44.709Z,1.81
2022-12-11T09:01:47.581Z,1.86
2022-12-11T09:02:50.525Z,1.89
2022-12-11T09:03:53.289Z,1.9
2022-12-11T09:04:55.971Z,1.95
2022-12-11T09:05:58.608Z,1.98
2022-12-11T09:07:01.257Z,2.01
2022-12-11T09:08:04.138Z,2
2022-12-11T09:09:06.863Z,2
2022-12-11T09:10:09.511Z,2
2022-12-11T09:11:12.152Z,2.02
2022-12-11T09:12:14.766Z,2.03
2022-12-11T09:13:17.431Z,2.03
2022-12-11T09:14:20.122Z,2.02
2022-12-11T09:15:22.742Z,2.02
2022-12-11T09:16:25.379Z,2.05
2022-12-11T09:17:28.023Z,2.08
2022-12-11T09:18:30.706Z,2.1
2022-12-11T09:19:33.368Z,2.13
2022-12-11T09:20:36.025Z,2.16
2022-12-11T09:21:38.661Z,2.18
2022-12-11T09:22:41.269Z,2.2
2022-12-11T09:23:44.004Z,2.19
2022-12-11T09:24:46.720Z,2.17
2022-12-11T09:25:49.390Z,2.18
2022-12-11T09:26:52.088Z,2.2
2022-12-11T09:27:54.751Z,2.21
2022-12-11T09:28:57.361Z,2.24
2022-12-11T09:30:00.086Z,2.24
2022-12-11T09:31:02.830Z,2.28
2022-12-11T09:32:05.576Z,2.28
2022-12-11T09:33:08.266Z,2.28
2022-12-11T09:34:10.969Z,2.32
2022-12-11T09:35:14.105Z,2.34
2022-12-11T09:36:21.257Z,2.36
2022-12-11T09:37:23.577Z,2.36
2022-12-11T09:38:26.250Z,2.38
2022-12-11T09:39:28.912Z,2.41
2022-12-11T09:40:31.577Z,2.47
2022-12-11T09:41:34.180Z,2.51
2022-12-11T09:42:36.855Z,2.54
2022-12-11T09:43:53.085Z,2.51
2022-12-11T09:44:55.733Z,2.52
2022-12-11T09:45:58.839Z,2.54
2022-12-11T09:47:01.585Z,2.56
2022-12-11T09:48:04.251Z,2.59
2022-12-11T09:49:06.928Z,2.6
2022-12-11T09:50:09.799Z,2.61
2022-12-11T09:51:12.516Z,2.65
2022-12-11T09:52:15.175Z,2.71
2022-12-11T09:53:17.820Z,2.76
2022-12-11T09:54:20.462Z,2.83
2022-12-11T09:55:23.117Z,2.87
2022-12-11T09:56:35.778Z,2.93
2022-12-11T09:57:38.036Z,2.99
2022-12-11T09:58:40.693Z,3.05
2022-12-11T09:59:43.956Z,3.09
2022-12-11T10:00:46.559Z,3.13
2022-12-11T10:01:49.433Z,3.17
2022-12-11T10:02:52.290Z,3.19
2022-12-11T10:03:55.083Z,3.23
2022-12-11T10:04:57.755Z,3.27
2022-12-11T10:06:05.428Z,3.32
2022-12-11T10:07:07.750Z,3.38
2022-12-11T10:08:10.586Z,3.4
2022-12-11T10:09:13.309Z,3.39
2022-12-11T10:10:15.954Z,3.43
2022-12-11T10:11:18.617Z,3.47
2022-12-11T10:12:21.258Z,3.49
2022-12-11T10:13:23.971Z,3.49
2022-12-11T10:14:26.731Z,3.49
2022-12-11T10:15:29.655Z,3.5
2022-12-11T10:16:32.574Z,3.53
2022-12-11T10:17:35.271Z,3.56
2022-12-11T10:18:37.916Z,3.57
2022-12-11T10:19:40.771Z,3.58
2022-12-11T10:20:43.418Z,3.59
2022-12-11T10:21:46.062Z,3.6
2022-12-11T10:22:48.740Z,3.65
2022-12-11T10:23:51.397Z,3.69
2022-12-11T10:25:12.303Z,3.67
2022-12-11T10:26:15.881Z,3.65
2022-12-11T10:27:18.471Z,3.62
2022-12-11T10:28:21.096Z,3.62
2022-12-11T10:29:23.691Z,3.62
2022-12-11T10:30:34.678Z,3.64
2022-12-11T10:31:37.176Z,3.64
2022-12-11T10:32:39.984Z,3.61
2022-12-11T10:33:42.685Z,3.59
2022-12-11T10:34:45.315Z,3.59
2022-12-11T10:35:47.964Z,3.55
2022-12-11T10:36:50.609Z,3.47
2022-12-11T10:37:53.234Z,3.43
2022-12-11T10:38:55.876Z,3.4
2022-12-11T10:39:58.531Z,3.35
2022-12-11T10:41:01.151Z,3.32
2022-12-11T10:42:03.852Z,3.3
2022-12-11T10:43:06.439Z,3.24
2022-12-11T10:44:09.068Z,3.22
2022-12-11T10:45:12.448Z,3.2
2022-12-11T10:46:15.512Z,3.21
2022-12-11T10:47:18.194Z,3.16
2022-12-11T10:48:20.909Z,3.13
2022-12-11T10:49:23.545Z,3.11
2022-12-11T10:50:26.263Z,3.12
2022-12-11T10:51:28.964Z,3.12
2022-12-11T10:52:31.725Z,3.14
2022-12-11T10:53:34.427Z,3.17
2022-12-11T10:54:37.107Z,3.2
2022-12-11T10:55:39.726Z,3.25
2022-12-11T10:56:42.403Z,3.29
2022-12-11T10:57:45.053Z,3.31
2022-12-11T10:58:47.666Z,3.33
2022-12-11T10:59:50.343Z,3.35
2022-12-11T11:00:52.990Z,3.36
2022-12-11T11:01:55.954Z,3.35
2022-12-11T11:02:58.998Z,3.36
2022-12-11T11:04:01.798Z,3.38
2022-12-11T11:05:04.430Z,3.4
2022-12-11T11:06:07.192Z,3.42
2022-12-11T11:07:09.835Z,3.43
2022-12-11T11:08:12.668Z,3.43
2022-12-11T11:09:15.446Z,3.43
2022-12-11T11:10:18.111Z,3.44
2022-12-11T11:11:20.738Z,3.47
2022-12-11T11:12:23.378Z,3.46
2022-12-11T11:13:26.013Z,3.48
2022-12-11T11:14:28.631Z,3.47
2022-12-11T11:15:31.313Z,3.45
2022-12-11T11:16:33.907Z,3.42
2022-12-11T11:17:54.422Z,3.41
2022-12-11T11:18:57.544Z,3.43
2022-12-11T11:20:00.192Z,3.46
2022-12-11T11:21:02.884Z,3.49
2022-12-11T11:22:05.525Z,3.52
2022-12-11T11:23:08.179Z,3.53
2022-12-11T11:24:10.839Z,3.53
2022-12-11T11:25:14.213Z,3.54
2022-12-11T11:26:16.825Z,3.55
2022-12-11T11:27:19.484Z,3.58
2022-12-11T11:28:22.129Z,3.57
2022-12-11T11:29:24.803Z,3.58
2022-12-11T11:30:27.513Z,3.58
2022-12-11T11:31:30.608Z,3.57
2022-12-11T11:32:33.315Z,3.55
2022-12-11T11:33:35.925Z,3.54
2022-12-11T11:34:38.564Z,3.5
2022-12-11T11:35:46.086Z,3.52
2022-12-11T11:36:48.401Z,3.55
2022-12-11T11:37:51.223Z,3.59
2022-12-11T11:38:53.878Z,3.64
2022-12-11T11:39:56.548Z,3.65
2022-12-11T11:41:14.621Z,3.65
2022-12-11T11:42:17.381Z,3.66
2022-12-11T11:43:19.895Z,3.69
2022-12-11T11:44:22.504Z,3.69
2022-12-11T11:45:25.144Z,3.72
2022-12-11T11:46:27.956Z,3.73
2022-12-11T11:47:30.952Z,3.76
2022-12-11T11:48:33.537Z,3.73
2022-12-11T11:49:36.176Z,3.72
2022-12-11T11:50:38.802Z,3.74
2022-12-11T11:51:41.477Z,3.75
2022-12-11T11:52:44.109Z,3.8
2022-12-11T11:53:46.954Z,3.85
2022-12-11T11:54:49.653Z,3.87
2022-12-11T11:55:52.752Z,3.89
2022-12-11T11:56:55.450Z,3.93
2022-12-11T11:57:58.077Z,3.95
2022-12-11T11:59:00.764Z,3.95
2022-12-11T12:00:03.417Z,3.94
2022-12-11T12:01:06.311Z,3.94
2022-12-11T12:02:08.926Z,3.94
2022-12-11T12:03:15.019Z,3.93
2022-12-11T12:04:17.446Z,3.91
2022-12-11T12:05:20.071Z,3.87
2022-12-11T12:06:22.699Z,3.87
2022-12-11T12:07:25.406Z,3.84
2022-12-11T12:08:28.320Z,3.83
2022-12-11T12:09:31.091Z,3.86
2022-12-11T12:10:34.072Z,3.89
2022-12-11T12:11:37.935Z,3.91
2022-12-11T12:12:40.581Z,3.93
2022-12-11T12:13:50.538Z,3.97
2022-12-11T12:14:53.270Z,3.99
2022-12-11T12:15:55.979Z,4
2022-12-11T12:16:58.897Z,4.01
2022-12-11T12:18:01.934Z,4.01
2022-12-11T12:19:04.580Z,4.04
2022-12-11T12:20:08.028Z,4.06
2022-12-11T12:21:10.697Z,4.04
2022-12-11T12:22:18.799Z,4.04
2022-12-11T12:23:21.096Z,4.04
2022-12-11T12:24:23.775Z,4.07
2022-12-11T12:25:26.403Z,4.07
2022-12-11T12:26:29.077Z,4.07
2022-12-11T12:27:57.048Z,4.05
2022-12-11T12:28:53.574Z,4.07
2022-12-11T12:30:01.701Z,4.09
2022-12-11T12:31:04.169Z,4.1
2022-12-11T12:32:06.895Z,4.1
2022-12-11T12:33:09.493Z,4.08
2022-12-11T12:34:12.149Z,4.08
2022-12-11T12:35:14.818Z,4.07
2022-12-11T12:36:17.450Z,4.07
2022-12-11T12:37:24.579Z,4.03
2022-12-11T12:38:26.923Z,4.01
2022-12-11T12:39:29.741Z,4
2022-12-11T12:40:32.411Z,4.01
2022-12-11T12:41:35.093Z,4.04
2022-12-11T12:42:43.305Z,4.05
2022-12-11T12:43:45.649Z,4.08
2022-12-11T12:47:53.950Z,4.12
2022-12-11T12:48:55.724Z,4.12
2022-12-11T12:49:58.210Z,4.13
2022-12-11T12:51:00.782Z,4.13
2022-12-11T12:52:03.399Z,4.12
2022-12-11T12:53:11.742Z,4.11
2022-12-11T12:54:13.757Z,4.12
2022-12-11T12:55:17.400Z,4.09
2022-12-11T12:56:19.989Z,4.08
2022-12-11T12:57:22.660Z,4.09
2022-12-11T12:58:25.311Z,4.08
2022-12-11T12:59:27.973Z,4.08
2022-12-11T13:00:30.612Z,4.05
2022-12-11T13:01:33.404Z,4.02
2022-12-11T13:02:36.240Z,4
2022-12-11T13:03:38.986Z,4.01
2022-12-11T13:04:56.190Z,4.04
2022-12-11T13:05:58.913Z,4.08
2022-12-11T13:07:01.523Z,4.08
2022-12-11T13:08:04.368Z,4.09
2022-12-11T13:09:07.079Z,4.11
2022-12-11T13:10:10.176Z,4.11
2022-12-11T13:11:12.786Z,4.1
2022-12-11T13:12:15.412Z,4.09
2022-12-11T13:13:18.140Z,4.08
2022-12-11T13:14:20.799Z,4.08
2022-12-11T13:15:23.444Z,4.1
2022-12-11T13:16:26.480Z,4.11
2022-12-11T13:17:29.357Z,4.1
2022-12-11T13:18:39.513Z,4.09
2022-12-11T13:19:43.145Z,4.08
2022-12-11T13:20:45.683Z,4.07
2022-12-11T13:21:48.318Z,4.07
2022-12-11T13:22:51.545Z,4.07
2022-12-11T13:23:54.161Z,4.07
2022-12-11T13:24:56.829Z,4.08
2022-12-11T13:25:59.563Z,4.06
2022-12-11T13:27:02.198Z,4.06
2022-12-11T13:33:12.015Z,4.03
2022-12-11T13:34:14.479Z,4.03
2022-12-11T13:35:17.068Z,4.02
2022-12-11T13:36:25.247Z,3.99
2022-12-11T13:37:27.492Z,3.98
2022-12-11T13:42:32.904Z,3.9
2022-12-11T13:46:55.132Z,3.88
2022-12-11T13:47:57.563Z,3.88
2022-12-11T13:49:00.126Z,3.84
2022-12-11T13:50:02.698Z,3.83
2022-12-11T13:51:10.329Z,3.83
2022-12-11T13:52:12.725Z,3.84
2022-12-11T13:53:15.309Z,3.79
2022-12-11T13:54:18.102Z,3.75
2022-12-11T13:55:20.736Z,3.74
2022-12-11T13:56:23.371Z,3.73
2022-12-11T13:57:26.002Z,3.72
2022-12-11T13:58:29.306Z,3.67
2022-12-11T13:59:32.006Z,3.62
2022-12-11T14:00:34.621Z,3.63
2022-12-11T14:01:37.275Z,3.6
2022-12-11T14:02:40.021Z,3.6
2022-12-11T14:03:43.737Z,3.55
2022-12-11T14:04:46.423Z,3.53
2022-12-11T14:05:49.033Z,3.54
2022-12-11T14:06:51.675Z,3.52
2022-12-11T14:07:54.530Z,3.52
2022-12-11T14:08:57.270Z,3.51
2022-12-11T14:09:59.889Z,3.49
2022-12-11T14:11:02.546Z,3.46
2022-12-11T14:12:05.126Z,3.39
2022-12-11T14:13:07.752Z,3.34
2022-12-11T14:14:10.535Z,3.3
2022-12-11T14:15:13.972Z,3.3
2022-12-11T14:16:16.898Z,3.3
2022-12-11T14:17:19.602Z,3.31